PWSweather.com
Personal Weather Stations
Station Observations
KJ4AJP
Beautiful Downtown Gardner, Martin, TN 38237

Beautiful Downtown GardnerMartin, TN 38237

Lat: 36.358, Lon: -88.8994

Elevation: 384.3

Station Type: TP1080WC

http://weather.mambm.com/

High Low Average
Temperature 48.0°F8.9°C 19.8°F-6.8°C 32.5°F0.3°C
Dew Point 38.7°F3.7°C 19.6°F-6.9°C 29.1°F-1.6°C
Winds 5.4 mph 8.7 kmh Calm Calm 1.0 mph E1.6 kmh E
Wind Gusts 10.7 mph17.2 kmh -- 3.0 mph4.8 kmh
Humidity 99% 67% 89%
Pressure 30.54 in1034.2 mb 30.30 in1026.1 mb -
Precipitation 0.00 in0.0 mm - -
Hour Temp Dew Point Humidity Winds Wind Gusts Pressure Precip Precip Rate Daily Precip Total
12:00 AM 22.6°F-5.2°C 22.4°F-5.3°C 99% Calm Calm 2.2 mph3.5 kmh 30.47 in1031.8 mb 0.00 in0.0 mm 0.00 in0.0 mm 0.00 in0.0 mm
12:15 AM 22.1°F-5.5°C 21.9°F-5.6°C 99% Calm Calm 0.7 mph1.1 kmh 30.47 in1031.8 mb 0.00 in0.0 mm 0.00 in0.0 mm 0.00 in0.0 mm
12:30 AM 22.1°F-5.5°C 21.9°F-5.6°C 99% Calm Calm -- 30.47 in1031.8 mb 0.00 in0.0 mm 0.00 in0.0 mm 0.00 in0.0 mm
12:45 AM 22.1°F-5.5°C 21.9°F-5.6°C 99% Calm Calm 1.6 mph2.6 kmh 30.47 in1031.8 mb 0.00 in0.0 mm 0.00 in0.0 mm 0.00 in0.0 mm
01:00 AM 22.1°F-5.5°C 21.9°F-5.6°C 99% Calm Calm 0.7 mph1.1 kmh 30.47 in1031.8 mb 0.00 in0.0 mm 0.00 in0.0 mm 0.00 in0.0 mm
01:15 AM 21.9°F-5.6°C 21.7°F-5.7°C 99% Calm Calm -- 30.46 in1031.5 mb 0.00 in0.0 mm 0.00 in0.0 mm 0.00 in0.0 mm
01:30 AM 21.9°F-5.6°C 21.7°F-5.7°C 99% Calm Calm -- 30.46 in1031.5 mb 0.00 in0.0 mm 0.00 in0.0 mm 0.00 in0.0 mm
01:45 AM 21.9°F-5.6°C 21.7°F-5.7°C 99% Calm Calm 0.7 mph1.1 kmh 30.46 in1031.5 mb 0.00 in0.0 mm 0.00 in0.0 mm 0.00 in0.0 mm
02:00 AM 21.9°F-5.6°C 21.7°F-5.7°C 99% Calm Calm 0.7 mph1.1 kmh 30.47 in1031.8 mb 0.00 in0.0 mm 0.00 in0.0 mm 0.00 in0.0 mm
02:15 AM 21.9°F-5.6°C 21.7°F-5.7°C 99% Calm Calm 1.6 mph2.6 kmh 30.46 in1031.5 mb 0.00 in0.0 mm 0.00 in0.0 mm 0.00 in0.0 mm
02:30 AM 21.6°F-5.8°C 21.3°F-5.9°C 99% Calm Calm 0.7 mph1.1 kmh 30.46 in1031.5 mb 0.00 in0.0 mm 0.00 in0.0 mm 0.00 in0.0 mm
02:45 AM 21.4°F-5.9°C 21.2°F-6.0°C 99% Calm Calm 0.7 mph1.1 kmh 30.45 in1031.2 mb 0.00 in0.0 mm 0.00 in0.0 mm 0.00 in0.0 mm
03:00 AM 21.2°F-6.0°C 21.0°F-6.1°C 99% Calm Calm 0.7 mph1.1 kmh 30.45 in1031.2 mb 0.00 in0.0 mm 0.00 in0.0 mm 0.00 in0.0 mm
03:15 AM 20.8°F-6.2°C 20.6°F-6.3°C 99% 0.7 mph NE1.1 kmh NE 2.2 mph3.5 kmh 30.46 in1031.5 mb 0.00 in0.0 mm 0.00 in0.0 mm 0.00 in0.0 mm
03:30 AM 21.0°F-6.1°C 20.8°F-6.2°C 99% Calm Calm 0.7 mph1.1 kmh 30.45 in1031.2 mb 0.00 in0.0 mm 0.00 in0.0 mm 0.00 in0.0 mm
03:45 AM 21.0°F-6.1°C 20.8°F-6.2°C 99% Calm Calm 0.7 mph1.1 kmh 30.46 in1031.5 mb 0.00 in0.0 mm 0.00 in0.0 mm 0.00 in0.0 mm
04:00 AM 21.0°F-6.1°C 20.8°F-6.2°C 99% Calm Calm 0.7 mph1.1 kmh 30.45 in1031.2 mb 0.00 in0.0 mm 0.00 in0.0 mm 0.00 in0.0 mm
04:15 AM 20.8°F-6.2°C 20.6°F-6.3°C 99% Calm Calm -- 30.45 in1031.2 mb 0.00 in0.0 mm 0.00 in0.0 mm 0.00 in0.0 mm
04:30 AM 20.8°F-6.2°C 20.6°F-6.3°C 99% Calm Calm 2.2 mph3.5 kmh 30.45 in1031.2 mb 0.00 in0.0 mm 0.00 in0.0 mm 0.00 in0.0 mm
04:45 AM 20.5°F-6.4°C 20.3°F-6.5°C 99% Calm Calm 0.7 mph1.1 kmh 30.46 in1031.5 mb 0.00 in0.0 mm 0.00 in0.0 mm 0.00 in0.0 mm
05:00 AM 20.5°F-6.4°C 20.3°F-6.5°C 99% Calm Calm 0.7 mph1.1 kmh 30.46 in1031.5 mb 0.00 in0.0 mm 0.00 in0.0 mm 0.00 in0.0 mm
05:15 AM 20.5°F-6.4°C 20.3°F-6.5°C 99% Calm Calm -- 30.47 in1031.8 mb 0.00 in0.0 mm 0.00 in0.0 mm 0.00 in0.0 mm
05:30 AM 20.1°F-6.6°C 19.9°F-6.7°C 99% Calm Calm -- 30.48 in1032.2 mb 0.00 in0.0 mm 0.00 in0.0 mm 0.00 in0.0 mm
05:45 AM 19.9°F-6.7°C 19.7°F-6.8°C 99% Calm Calm -- 30.47 in1031.8 mb 0.00 in0.0 mm 0.00 in0.0 mm 0.00 in0.0 mm
06:00 AM 19.9°F-6.7°C 19.7°F-6.8°C 99% Calm Calm 0.7 mph1.1 kmh 30.49 in1032.5 mb 0.00 in0.0 mm 0.00 in0.0 mm 0.00 in0.0 mm
06:15 AM 19.9°F-6.7°C 19.7°F-6.8°C 99% Calm Calm -- 30.49 in1032.5 mb 0.00 in0.0 mm 0.00 in0.0 mm 0.00 in0.0 mm
06:30 AM 19.8°F-6.8°C 19.6°F-6.9°C 99% Calm Calm -- 30.49 in1032.5 mb 0.00 in0.0 mm 0.00 in0.0 mm 0.00 in0.0 mm
06:45 AM 19.9°F-6.7°C 19.7°F-6.8°C 99% Calm Calm 0.7 mph1.1 kmh 30.49 in1032.5 mb 0.00 in0.0 mm 0.00 in0.0 mm 0.00 in0.0 mm
07:00 AM 19.9°F-6.7°C 19.7°F-6.8°C 99% Calm Calm 0.7 mph1.1 kmh 30.49 in1032.5 mb 0.00 in0.0 mm 0.00 in0.0 mm 0.00 in0.0 mm
07:15 AM 19.8°F-6.8°C 19.6°F-6.9°C 99% Calm Calm 0.7 mph1.1 kmh 30.49 in1032.5 mb 0.00 in0.0 mm 0.00 in0.0 mm 0.00 in0.0 mm
07:30 AM 20.3°F-6.5°C 20.1°F-6.6°C 99% Calm Calm 1.6 mph2.6 kmh 30.50 in1032.8 mb 0.00 in0.0 mm 0.00 in0.0 mm 0.00 in0.0 mm
07:45 AM 22.3°F-5.4°C 22.1°F-5.5°C 99% Calm Calm 2.2 mph3.5 kmh 30.50 in1032.8 mb 0.00 in0.0 mm 0.00 in0.0 mm 0.00 in0.0 mm
08:00 AM 24.4°F-4.2°C 24.2°F-4.3°C 99% 0.7 mph N1.1 kmh N 2.2 mph3.5 kmh 30.51 in1033.2 mb 0.00 in0.0 mm 0.00 in0.0 mm 0.00 in0.0 mm
08:15 AM 25.7°F-3.5°C 25.5°F-3.6°C 99% 1.6 mph N2.6 kmh N 3.1 mph5.0 kmh 30.52 in1033.5 mb 0.00 in0.0 mm 0.00 in0.0 mm 0.00 in0.0 mm
08:30 AM 27.0°F-2.8°C 26.7°F-2.9°C 99% 0.7 mph N1.1 kmh N 2.2 mph3.5 kmh 30.52 in1033.5 mb 0.00 in0.0 mm 0.00 in0.0 mm 0.00 in0.0 mm
08:45 AM 28.2°F-2.1°C 28.0°F-2.2°C 99% 1.6 mph N2.6 kmh N 3.1 mph5.0 kmh 30.53 in1033.9 mb 0.00 in0.0 mm 0.00 in0.0 mm 0.00 in0.0 mm
09:00 AM 30.0°F-1.1°C 29.8°F-1.2°C 99% 2.2 mph N3.5 kmh N 3.8 mph6.1 kmh 30.54 in1034.2 mb 0.00 in0.0 mm 0.00 in0.0 mm 0.00 in0.0 mm
09:15 AM 31.5°F-0.3°C 31.2°F-0.4°C 99% 1.6 mph N2.6 kmh N 3.8 mph6.1 kmh 30.54 in1034.2 mb 0.00 in0.0 mm 0.00 in0.0 mm 0.00 in0.0 mm
09:30 AM 32.9°F0.5°C 32.7°F0.4°C 99% Calm Calm 3.8 mph6.1 kmh 30.54 in1034.2 mb 0.00 in0.0 mm 0.00 in0.0 mm 0.00 in0.0 mm
09:45 AM 34.3°F1.3°C 34.1°F1.2°C 99% 1.6 mph NNE2.6 kmh NNE 3.1 mph5.0 kmh 30.53 in1033.9 mb 0.00 in0.0 mm 0.00 in0.0 mm 0.00 in0.0 mm
10:00 AM 35.6°F2.0°C 35.4°F1.9°C 99% 2.2 mph NE3.5 kmh NE 3.8 mph6.1 kmh 30.52 in1033.5 mb 0.00 in0.0 mm 0.00 in0.0 mm 0.00 in0.0 mm
10:15 AM 36.9°F2.7°C 36.1°F2.3°C 97% 2.2 mph ENE3.5 kmh ENE 3.8 mph6.1 kmh 30.53 in1033.9 mb 0.00 in0.0 mm 0.00 in0.0 mm 0.00 in0.0 mm
10:30 AM 37.8°F3.2°C 35.7°F2.1°C 92% 2.2 mph E3.5 kmh E 6.0 mph9.7 kmh 30.52 in1033.5 mb 0.00 in0.0 mm 0.00 in0.0 mm 0.00 in0.0 mm
10:45 AM 38.7°F3.7°C 35.7°F2.1°C 89% 2.2 mph E3.5 kmh E 6.0 mph9.7 kmh 30.52 in1033.5 mb 0.00 in0.0 mm 0.00 in0.0 mm 0.00 in0.0 mm
11:00 AM 39.7°F4.3°C 36.2°F2.3°C 87% 2.2 mph SE3.5 kmh SE 5.4 mph8.7 kmh 30.51 in1033.2 mb 0.00 in0.0 mm 0.00 in0.0 mm 0.00 in0.0 mm
11:15 AM 40.3°F4.6°C 35.5°F1.9°C 83% 2.2 mph ENE3.5 kmh ENE 6.0 mph9.7 kmh 30.51 in1033.2 mb 0.00 in0.0 mm 0.00 in0.0 mm 0.00 in0.0 mm
11:30 AM 41.0°F5.0°C 35.3°F1.8°C 80% 1.6 mph E2.6 kmh E 5.4 mph8.7 kmh 30.51 in1033.2 mb 0.00 in0.0 mm 0.00 in0.0 mm 0.00 in0.0 mm
11:45 AM 41.5°F5.3°C 36.2°F2.3°C 81% 2.2 mph NNW3.5 kmh NNW 4.5 mph7.2 kmh 30.50 in1032.8 mb 0.00 in0.0 mm 0.00 in0.0 mm 0.00 in0.0 mm
12:00 PM 42.3°F5.7°C 36.2°F2.3°C 79% 3.1 mph E5.0 kmh E 5.4 mph8.7 kmh 30.49 in1032.5 mb 0.00 in0.0 mm 0.00 in0.0 mm 0.00 in0.0 mm
12:15 PM 42.4°F5.8°C 35.8°F2.1°C 77% 1.6 mph WSW2.6 kmh WSW 6.0 mph9.7 kmh 30.48 in1032.2 mb 0.00 in0.0 mm 0.00 in0.0 mm 0.00 in0.0 mm
12:30 PM 43.3°F6.3°C 36.6°F2.6°C 77% 0.7 mph S1.1 kmh S 6.9 mph11.1 kmh 30.47 in1031.8 mb 0.00 in0.0 mm 0.00 in0.0 mm 0.00 in0.0 mm
12:45 PM 43.7°F6.5°C 36.3°F2.4°C 75% 0.7 mph NE1.1 kmh NE 4.5 mph7.2 kmh 30.47 in1031.8 mb 0.00 in0.0 mm 0.00 in0.0 mm 0.00 in0.0 mm
01:00 PM 44.1°F6.7°C 36.7°F2.6°C 75% Calm Calm 4.5 mph7.2 kmh 30.45 in1031.2 mb 0.00 in0.0 mm 0.00 in0.0 mm 0.00 in0.0 mm
01:15 PM 45.0°F7.2°C 37.2°F2.9°C 74% 2.2 mph ENE3.5 kmh ENE 5.4 mph8.7 kmh 30.44 in1030.8 mb 0.00 in0.0 mm 0.00 in0.0 mm 0.00 in0.0 mm
01:30 PM 46.2°F7.9°C 38.1°F3.4°C 73% 0.7 mph SSW1.1 kmh SSW 5.4 mph8.7 kmh 30.44 in1030.8 mb 0.00 in0.0 mm 0.00 in0.0 mm 0.00 in0.0 mm
01:45 PM 46.2°F7.9°C 37.7°F3.2°C 72% 3.1 mph SSW5.0 kmh SSW 8.3 mph13.4 kmh 30.43 in1030.5 mb 0.00 in0.0 mm 0.00 in0.0 mm 0.00 in0.0 mm
02:00 PM 46.4°F8.0°C 37.5°F3.1°C 71% 0.7 mph SSE1.1 kmh SSE 6.0 mph9.7 kmh 30.41 in1029.8 mb 0.00 in0.0 mm 0.00 in0.0 mm 0.00 in0.0 mm
02:15 PM 46.8°F8.2°C 37.5°F3.1°C 70% 1.6 mph SSE2.6 kmh SSE 6.9 mph11.1 kmh 30.41 in1029.8 mb 0.00 in0.0 mm 0.00 in0.0 mm 0.00 in0.0 mm
02:30 PM 47.5°F8.6°C 38.2°F3.4°C 70% 3.1 mph S5.0 kmh S 5.4 mph8.7 kmh 30.40 in1029.5 mb 0.00 in0.0 mm 0.00 in0.0 mm 0.00 in0.0 mm
02:45 PM 47.8°F8.8°C 38.2°F3.4°C 69% 1.6 mph S2.6 kmh S 6.0 mph9.7 kmh 30.40 in1029.5 mb 0.00 in0.0 mm 0.00 in0.0 mm 0.00 in0.0 mm
03:00 PM 48.0°F8.9°C 38.7°F3.7°C 70% 3.1 mph SE5.0 kmh SE 6.9 mph11.1 kmh 30.39 in1029.1 mb 0.00 in0.0 mm 0.00 in0.0 mm 0.00 in0.0 mm
03:15 PM 48.0°F8.9°C 38.3°F3.5°C 69% 3.1 mph SE5.0 kmh SE 6.9 mph11.1 kmh 30.39 in1029.1 mb 0.00 in0.0 mm 0.00 in0.0 mm 0.00 in0.0 mm
03:30 PM 47.8°F8.8°C 37.8°F3.2°C 68% 3.1 mph S5.0 kmh S 9.2 mph14.8 kmh 30.39 in1029.1 mb 0.00 in0.0 mm 0.00 in0.0 mm 0.00 in0.0 mm
03:45 PM 47.8°F8.8°C 37.4°F3.0°C 67% 5.4 mph SSE8.7 kmh SSE 8.3 mph13.4 kmh 30.38 in1028.8 mb 0.00 in0.0 mm 0.00 in0.0 mm 0.00 in0.0 mm
04:00 PM 47.7°F8.7°C 37.3°F2.9°C 67% 3.1 mph SE5.0 kmh SE 6.9 mph11.1 kmh 30.38 in1028.8 mb 0.00 in0.0 mm 0.00 in0.0 mm 0.00 in0.0 mm
04:15 PM 47.7°F8.7°C 37.6°F3.1°C 68% 3.1 mph SE5.0 kmh SE 6.0 mph9.7 kmh 30.38 in1028.8 mb 0.00 in0.0 mm 0.00 in0.0 mm 0.00 in0.0 mm
04:30 PM 47.5°F8.6°C 37.1°F2.8°C 67% 1.6 mph SSE2.6 kmh SSE 10.7 mph17.2 kmh 30.37 in1028.4 mb 0.00 in0.0 mm 0.00 in0.0 mm 0.00 in0.0 mm
04:45 PM 46.9°F8.3°C 36.6°F2.6°C 67% 3.1 mph SSE5.0 kmh SSE 6.9 mph11.1 kmh 30.37 in1028.4 mb 0.00 in0.0 mm 0.00 in0.0 mm 0.00 in0.0 mm
05:00 PM 45.9°F7.7°C 36.3°F2.4°C 69% 1.6 mph S2.6 kmh S 5.4 mph8.7 kmh 30.36 in1028.1 mb 0.00 in0.0 mm 0.00 in0.0 mm 0.00 in0.0 mm
05:15 PM 44.4°F6.9°C 35.6°F2.0°C 71% 0.7 mph S1.1 kmh S 3.8 mph6.1 kmh 30.36 in1028.1 mb 0.00 in0.0 mm 0.00 in0.0 mm 0.00 in0.0 mm
05:30 PM 42.8°F6.0°C 34.8°F1.6°C 73% Calm Calm 1.6 mph2.6 kmh 30.36 in1028.1 mb 0.00 in0.0 mm 0.00 in0.0 mm 0.00 in0.0 mm
05:45 PM 41.4°F5.2°C 34.0°F1.1°C 75% Calm Calm 1.6 mph2.6 kmh 30.35 in1027.8 mb 0.00 in0.0 mm 0.00 in0.0 mm 0.00 in0.0 mm
06:00 PM 40.1°F4.5°C 33.5°F0.8°C 77% 0.7 mph SE1.1 kmh SE 2.2 mph3.5 kmh 30.35 in1027.8 mb 0.00 in0.0 mm 0.00 in0.0 mm 0.00 in0.0 mm
06:15 PM 38.7°F3.7°C 32.7°F0.4°C 79% Calm Calm 1.6 mph2.6 kmh 30.36 in1028.1 mb 0.00 in0.0 mm 0.00 in0.0 mm 0.00 in0.0 mm
06:30 PM 37.6°F3.1°C 32.3°F0.2°C 81% Calm Calm 2.2 mph3.5 kmh 30.35 in1027.8 mb 0.00 in0.0 mm 0.00 in0.0 mm 0.00 in0.0 mm
06:45 PM 36.7°F2.6°C 31.7°F-0.2°C 82% Calm Calm 1.6 mph2.6 kmh 30.34 in1027.4 mb 0.00 in0.0 mm 0.00 in0.0 mm 0.00 in0.0 mm
07:00 PM 35.8°F2.1°C 31.4°F-0.3°C 84% Calm Calm 1.6 mph2.6 kmh 30.35 in1027.8 mb 0.00 in0.0 mm 0.00 in0.0 mm 0.00 in0.0 mm
07:15 PM 34.9°F1.6°C 30.8°F-0.7°C 85% 0.7 mph SSE1.1 kmh SSE 1.6 mph2.6 kmh 30.35 in1027.8 mb 0.00 in0.0 mm 0.00 in0.0 mm 0.00 in0.0 mm
07:30 PM 34.3°F1.3°C 30.6°F-0.8°C 86% Calm Calm 2.2 mph3.5 kmh 30.35 in1027.8 mb 0.00 in0.0 mm 0.00 in0.0 mm 0.00 in0.0 mm
07:45 PM 34.0°F1.1°C 30.5°F-0.8°C 87% 0.7 mph S1.1 kmh S 2.2 mph3.5 kmh 30.35 in1027.8 mb 0.00 in0.0 mm 0.00 in0.0 mm 0.00 in0.0 mm
08:00 PM 33.8°F1.0°C 30.4°F-0.9°C 87% 0.7 mph S1.1 kmh S 2.2 mph3.5 kmh 30.35 in1027.8 mb 0.00 in0.0 mm 0.00 in0.0 mm 0.00 in0.0 mm
08:15 PM 33.1°F0.6°C 29.6°F-1.3°C 87% Calm Calm 1.6 mph2.6 kmh 30.34 in1027.4 mb 0.00 in0.0 mm 0.00 in0.0 mm 0.00 in0.0 mm
08:30 PM 32.5°F0.3°C 29.4°F-1.4°C 88% Calm Calm 1.6 mph2.6 kmh 30.36 in1028.1 mb 0.00 in0.0 mm 0.00 in0.0 mm 0.00 in0.0 mm
08:45 PM 32.0°F0.0°C 29.1°F-1.6°C 89% Calm Calm 0.7 mph1.1 kmh 30.35 in1027.8 mb 0.00 in0.0 mm 0.00 in0.0 mm 0.00 in0.0 mm
09:00 PM 31.6°F-0.2°C 29.1°F-1.6°C 90% 1.6 mph SE2.6 kmh SE 2.2 mph3.5 kmh 30.35 in1027.8 mb 0.00 in0.0 mm 0.00 in0.0 mm 0.00 in0.0 mm
09:15 PM 31.3°F-0.4°C 29.0°F-1.7°C 91% Calm Calm 2.2 mph3.5 kmh 30.35 in1027.8 mb 0.00 in0.0 mm 0.00 in0.0 mm 0.00 in0.0 mm
09:30 PM 30.9°F-0.6°C 28.6°F-1.9°C 91% 1.6 mph SE2.6 kmh SE 2.2 mph3.5 kmh 30.35 in1027.8 mb 0.00 in0.0 mm 0.00 in0.0 mm 0.00 in0.0 mm
09:45 PM 30.4°F-0.9°C 28.1°F-2.2°C 91% 1.6 mph SE2.6 kmh SE 2.2 mph3.5 kmh 30.34 in1027.4 mb 0.00 in0.0 mm 0.00 in0.0 mm 0.00 in0.0 mm
10:00 PM 30.6°F-0.8°C 28.8°F-1.8°C 93% 0.7 mph SE1.1 kmh SE 3.1 mph5.0 kmh 30.33 in1027.1 mb 0.00 in0.0 mm 0.00 in0.0 mm 0.00 in0.0 mm
10:15 PM 30.9°F-0.6°C 29.1°F-1.6°C 93% 0.7 mph SSE1.1 kmh SSE 2.2 mph3.5 kmh 30.32 in1026.8 mb 0.00 in0.0 mm 0.00 in0.0 mm 0.00 in0.0 mm
10:30 PM 31.1°F-0.5°C 29.3°F-1.5°C 93% 0.7 mph SSE1.1 kmh SSE 3.1 mph5.0 kmh 30.32 in1026.8 mb 0.00 in0.0 mm 0.00 in0.0 mm 0.00 in0.0 mm
10:45 PM 31.5°F-0.3°C 29.7°F-1.3°C 93% 2.2 mph S3.5 kmh S 3.1 mph5.0 kmh 30.32 in1026.8 mb 0.00 in0.0 mm 0.00 in0.0 mm 0.00 in0.0 mm
11:00 PM 31.8°F-0.1°C 30.0°F-1.1°C 93% 0.7 mph S1.1 kmh S 2.2 mph3.5 kmh 30.32 in1026.8 mb 0.00 in0.0 mm 0.00 in0.0 mm 0.00 in0.0 mm
11:15 PM 32.0°F0.0°C 30.0°F-1.1°C 92% Calm Calm 3.1 mph5.0 kmh 30.31 in1026.4 mb 0.00 in0.0 mm 0.00 in0.0 mm 0.00 in0.0 mm
11:30 PM 32.2°F0.1°C 30.1°F-1.1°C 92% 0.7 mph SSE1.1 kmh SSE 3.8 mph6.1 kmh 30.30 in1026.1 mb 0.00 in0.0 mm 0.00 in0.0 mm 0.00 in0.0 mm
11:45 PM 32.2°F0.1°C 29.9°F-1.2°C 91% 0.7 mph SSE1.1 kmh SSE 3.1 mph5.0 kmh 30.30 in1026.1 mb 0.00 in0.0 mm 0.00 in0.0 mm 0.00 in0.0 mm